createdAt,value
2022-08-10T00:00:23.414Z,77.90
2022-08-10T00:01:23.438Z,78.20
2022-08-10T00:02:23.387Z,78.30
2022-08-10T00:03:23.399Z,78.81
2022-08-10T00:04:23.733Z,78.41
2022-08-10T00:05:23.383Z,77.39
2022-08-10T00:06:23.372Z,77.39
2022-08-10T00:07:23.377Z,77.60
2022-08-10T00:08:24.158Z,78.30
2022-08-10T00:09:23.427Z,78.61
2022-08-10T00:10:23.363Z,78.30
2022-08-10T00:11:23.389Z,79.11
2022-08-10T00:12:23.379Z,77.50
2022-08-10T00:13:23.394Z,78.64
2022-08-10T00:14:23.375Z,78.64
2022-08-10T00:15:53.165Z,78.75
2022-08-10T00:16:23.366Z,79.05
2022-08-10T00:17:23.335Z,78.85
2022-08-10T00:18:34.996Z,78.95
2022-08-10T00:19:23.342Z,79.25
2022-08-10T00:20:23.321Z,79.25
2022-08-10T00:21:23.326Z,79.05
2022-08-10T00:22:23.318Z,79.29
2022-08-10T00:23:23.318Z,79.29
2022-08-10T00:24:23.313Z,79.19
2022-08-10T00:25:23.310Z,79.69
2022-08-10T00:26:23.309Z,79.90
2022-08-10T00:28:01.318Z,79.69
2022-08-10T00:28:23.299Z,79.59
2022-08-10T00:29:23.298Z,79.83
2022-08-10T00:30:23.292Z,79.69
2022-08-10T00:31:23.288Z,81.41
2022-08-10T00:32:23.287Z,81.41
2022-08-10T00:33:23.282Z,81.71
2022-08-10T00:34:23.277Z,80.50
2022-08-10T00:35:23.277Z,81.41
2022-08-10T00:36:23.274Z,82.02
2022-08-10T00:37:23.268Z,81.82
2022-08-10T00:38:23.264Z,80.91
2022-08-10T00:39:23.282Z,80.84
2022-08-10T00:40:37.841Z,80.44
2022-08-10T00:41:23.268Z,80.64
2022-08-10T00:42:23.255Z,80.44
2022-08-10T00:43:24.144Z,81.05
2022-08-10T00:44:23.244Z,81.05
2022-08-10T00:45:23.244Z,81.45
2022-08-10T00:46:23.240Z,80.94
2022-08-10T00:47:37.281Z,82.40
2022-08-10T00:48:23.229Z,82.46
2022-08-10T00:49:23.223Z,82.87
2022-08-10T00:50:23.219Z,83.21
2022-08-10T00:51:23.217Z,82.50
2022-08-10T00:52:23.219Z,83.21
2022-08-10T00:53:23.211Z,82.40
2022-08-10T00:54:24.430Z,82.46
2022-08-10T00:55:23.203Z,82.30
2022-08-10T00:57:12.373Z,82.30
2022-08-10T00:57:23.195Z,81.76
2022-08-10T00:58:23.197Z,81.39
2022-08-10T00:59:23.184Z,81.90
2022-08-10T01:00:23.186Z,83.11
2022-08-10T01:02:09.565Z,82.70
2022-08-10T01:02:23.230Z,82.70
2022-08-10T01:04:40.052Z,82.60
2022-08-10T01:04:54.658Z,81.99
2022-08-10T01:05:23.168Z,82.40
2022-08-10T01:06:23.162Z,82.50
2022-08-10T01:07:23.161Z,83.11
2022-08-10T01:08:23.159Z,83.11
2022-08-10T01:09:23.149Z,82.60
2022-08-10T01:10:23.147Z,83.21
2022-08-10T01:11:42.347Z,82.84
2022-08-10T01:12:39.043Z,83.35
2022-08-10T01:13:23.213Z,83.25
2022-08-10T01:14:23.131Z,83.41
2022-08-10T01:15:23.131Z,83.86
2022-08-10T01:16:23.123Z,83.51
2022-08-10T01:17:23.126Z,83.65
2022-08-10T01:18:23.112Z,83.41
2022-08-10T01:19:23.115Z,83.96
2022-08-10T01:20:30.323Z,83.35
2022-08-10T01:21:23.106Z,83.25
2022-08-10T01:22:23.100Z,83.15
2022-08-10T01:23:23.097Z,83.45
2022-08-10T01:24:23.223Z,83.55
2022-08-10T01:25:23.090Z,83.25
2022-08-10T01:26:31.035Z,83.69
2022-08-10T01:27:26.954Z,83.96
2022-08-10T01:28:23.076Z,83.96
2022-08-10T01:29:23.071Z,84.10
2022-08-10T01:30:23.066Z,84.10
2022-08-10T01:31:23.071Z,84.20
2022-08-10T01:32:23.058Z,84.44
2022-08-10T01:35:18.097Z,85.05
2022-08-10T01:35:55.184Z,85.66
2022-08-10T01:36:55.179Z,85.76
2022-08-10T01:37:55.176Z,85.96
2022-08-10T01:38:55.182Z,86.27
2022-08-10T01:39:55.251Z,85.76
2022-08-10T01:40:55.162Z,85.76
2022-08-10T01:41:55.159Z,86.07
2022-08-10T01:42:55.155Z,86.07
2022-08-10T01:43:55.154Z,86.00
2022-08-10T01:44:55.148Z,86.16
2022-08-10T01:45:55.146Z,85.96
2022-08-10T01:46:56.923Z,86.77
2022-08-10T01:47:55.147Z,85.50
2022-08-10T01:48:55.132Z,85.96
2022-08-10T01:49:55.127Z,85.80
2022-08-10T01:50:59.814Z,87.02
2022-08-10T01:51:55.121Z,86.88
2022-08-10T01:52:55.116Z,86.71
2022-08-10T01:53:55.110Z,86.10
2022-08-10T01:54:56.125Z,86.68
2022-08-10T01:55:55.112Z,86.71
2022-08-10T01:56:55.102Z,86.41
2022-08-10T01:57:55.097Z,86.91
2022-08-10T01:58:55.091Z,87.52
2022-08-10T02:00:02.086Z,87.22
2022-08-10T02:00:55.135Z,87.02
2022-08-10T02:01:55.078Z,86.71
2022-08-10T02:02:55.075Z,86.51
2022-08-10T02:04:03.702Z,87.43
2022-08-10T02:04:55.068Z,87.22
2022-08-10T02:05:55.078Z,87.22
2022-08-10T02:06:55.063Z,87.43
2022-08-10T02:07:55.053Z,87.32
2022-08-10T02:08:55.832Z,86.91
2022-08-10T02:09:55.047Z,87.43
2022-08-10T02:10:55.040Z,87.63
2022-08-10T02:12:07.784Z,87.16
2022-08-10T02:12:55.030Z,87.02
2022-08-10T02:13:55.028Z,86.86
2022-08-10T02:14:55.026Z,87.02
2022-08-10T02:16:01.146Z,87.06
2022-08-10T02:16:55.016Z,87.57
2022-08-10T02:18:00.526Z,86.96
2022-08-10T02:18:55.007Z,88.18
2022-08-10T02:19:55.001Z,88.38
2022-08-10T02:20:55.003Z,88.78
2022-08-10T02:22:35.124Z,88.99
2022-08-10T02:22:54.990Z,89.29
2022-08-10T02:23:59.619Z,89.29
2022-08-10T02:24:54.984Z,89.70
2022-08-10T02:25:54.980Z,89.39
2022-08-10T02:26:56.435Z,88.99
2022-08-10T02:27:54.966Z,89.59
2022-08-10T02:28:54.966Z,89.84
2022-08-10T02:29:54.965Z,90.00
2022-08-10T02:30:54.954Z,89.94
2022-08-10T02:31:54.949Z,90.31
2022-08-10T02:32:54.946Z,89.74
2022-08-10T02:33:57.439Z,89.39
2022-08-10T02:34:54.939Z,89.64
2022-08-10T02:35:55.871Z,89.90
2022-08-10T02:36:54.930Z,89.74
2022-08-10T02:37:54.926Z,90.66
2022-08-10T02:38:58.874Z,90.55
2022-08-10T02:39:54.914Z,91.06
2022-08-10T02:45:01.952Z,91.36
2022-08-10T02:45:14.711Z,90.96
2022-08-10T02:45:18.652Z,90.45
2022-08-10T02:45:21.963Z,91.06
2022-08-10T02:45:29.430Z,91.26
2022-08-10T02:45:54.890Z,90.55
2022-08-10T02:46:54.885Z,90.75
2022-08-10T02:47:54.884Z,90.70
2022-08-10T02:48:54.875Z,90.29
2022-08-10T02:49:54.870Z,90.25
2022-08-10T02:50:54.868Z,91.87
2022-08-10T02:52:07.971Z,91.26
2022-08-10T02:52:54.858Z,91.47
2022-08-10T02:53:57.247Z,91.06
2022-08-10T02:54:54.849Z,90.75
2022-08-10T02:55:54.844Z,91.67
2022-08-10T02:56:54.850Z,91.82
2022-08-10T02:58:16.922Z,91.06
2022-08-10T02:58:54.830Z,91.67
2022-08-10T02:59:54.829Z,91.26
2022-08-10T03:00:54.898Z,91.36
2022-08-10T03:01:54.816Z,91.51
2022-08-10T03:02:54.817Z,91.51
2022-08-10T03:03:54.810Z,90.96
2022-08-10T03:04:57.742Z,90.80
2022-08-10T03:05:54.802Z,91.41
2022-08-10T03:06:54.793Z,91.51
2022-08-10T03:07:54.787Z,91.71
2022-08-10T03:08:54.789Z,91.61
2022-08-10T03:09:54.794Z,91.75
2022-08-10T03:10:54.779Z,91.05
2022-08-10T03:12:35.282Z,91.41
2022-08-10T03:12:55.038Z,90.90
2022-08-10T03:13:59.845Z,91.10
2022-08-10T03:14:54.760Z,91.00
2022-08-10T03:15:54.751Z,92.02
2022-08-10T03:16:54.748Z,93.13
2022-08-10T03:17:57.755Z,92.72
2022-08-10T03:18:54.747Z,91.51
2022-08-10T03:20:35.737Z,92.26
2022-08-10T03:20:54.732Z,92.12
2022-08-10T03:21:54.727Z,91.51
2022-08-10T03:22:54.723Z,91.45
2022-08-10T03:23:54.711Z,91.82
2022-08-10T03:24:54.712Z,91.55
2022-08-10T03:25:55.054Z,91.45
2022-08-10T03:26:54.702Z,92.06
2022-08-10T03:27:54.698Z,91.55
2022-08-10T03:28:54.696Z,91.65
2022-08-10T03:30:28.522Z,91.75
2022-08-10T03:30:54.738Z,91.55
2022-08-10T03:31:54.679Z,91.25
2022-08-10T03:32:54.677Z,91.55
2022-08-10T03:33:54.671Z,91.55
2022-08-10T03:34:54.667Z,91.75
2022-08-10T03:36:41.691Z,91.65
2022-08-10T03:36:54.656Z,91.55
2022-08-10T03:37:59.238Z,91.75
2022-08-10T03:38:54.649Z,91.41
2022-08-10T03:39:54.643Z,91.75
2022-08-10T03:40:54.638Z,91.61
2022-08-10T03:41:54.634Z,91.61
2022-08-10T03:42:54.629Z,91.61
2022-08-10T03:43:54.626Z,91.41
2022-08-10T03:44:54.619Z,91.51
2022-08-10T03:45:56.482Z,91.51
2022-08-10T03:46:54.611Z,91.20
2022-08-10T03:47:54.605Z,91.05
2022-08-10T03:48:54.600Z,91.10
2022-08-10T03:49:54.596Z,91.30
2022-08-10T03:50:54.592Z,91.10
2022-08-10T03:51:54.586Z,91.51
2022-08-10T03:52:54.578Z,91.51
2022-08-10T03:54:02.930Z,91.20
2022-08-10T03:54:54.572Z,91.00
2022-08-10T03:56:30.495Z,91.41
2022-08-10T03:56:54.564Z,91.10
2022-08-10T03:57:54.558Z,91.82
2022-08-10T03:58:54.556Z,92.02
2022-08-10T03:59:54.545Z,91.91
2022-08-10T04:00:54.602Z,92.12
2022-08-10T04:02:44.141Z,92.02
2022-08-10T04:02:54.773Z,91.91
2022-08-10T04:04:11.550Z,92.02
2022-08-10T04:04:54.524Z,92.02
2022-08-10T04:05:54.530Z,91.65
2022-08-10T04:06:55.388Z,91.71
2022-08-10T04:07:54.512Z,92.02
2022-08-10T04:08:54.505Z,92.12
2022-08-10T04:09:56.420Z,91.51
2022-08-10T04:10:54.496Z,91.82
2022-08-10T04:11:54.489Z,91.82
2022-08-10T04:12:54.489Z,91.71
2022-08-10T04:13:54.480Z,91.82
2022-08-10T04:14:54.477Z,91.56
2022-08-10T04:15:54.470Z,91.36
2022-08-10T04:16:54.469Z,91.16
2022-08-10T04:18:05.115Z,90.86
2022-08-10T04:18:54.466Z,90.86
2022-08-10T04:19:54.449Z,90.75
2022-08-10T04:20:54.446Z,90.45
2022-08-10T04:21:54.447Z,90.55
2022-08-10T04:22:54.436Z,90.35
2022-08-10T04:23:54.435Z,90.35
2022-08-10T04:24:54.423Z,90.66
2022-08-10T04:25:54.420Z,90.55
2022-08-10T04:26:54.419Z,90.66
2022-08-10T04:27:54.411Z,91.26
2022-08-10T04:28:54.408Z,91.16
2022-08-10T04:29:54.400Z,91.36
2022-08-10T04:30:54.396Z,91.67
2022-08-10T04:31:54.396Z,91.47
2022-08-10T04:32:54.392Z,91.67
2022-08-10T04:33:54.384Z,92.07
2022-08-10T04:34:54.377Z,91.26
2022-08-10T04:35:54.375Z,91.97
2022-08-10T04:36:54.379Z,91.26
2022-08-10T04:37:54.362Z,91.63
2022-08-10T04:38:54.358Z,91.02
2022-08-10T04:39:54.354Z,90.92
2022-08-10T04:40:54.348Z,90.36
2022-08-10T04:41:54.339Z,90.00
2022-08-10T04:42:54.336Z,89.96
2022-08-10T04:43:54.334Z,89.41
2022-08-10T04:44:54.328Z,89.81
2022-08-10T04:45:54.327Z,89.81
2022-08-10T04:46:58.552Z,89.01
2022-08-10T04:48:00.544Z,88.66
2022-08-10T04:49:01.611Z,88.01
2022-08-10T04:49:56.882Z,87.00
2022-08-10T04:50:54.298Z,86.61
2022-08-10T04:51:54.429Z,83.84
2022-08-10T04:52:54.303Z,82.75
2022-08-10T04:54:05.454Z,81.30
2022-08-10T04:54:54.284Z,79.61
2022-08-10T04:55:54.280Z,78.02
2022-08-10T04:56:54.275Z,77.08
2022-08-10T04:57:54.270Z,75.70
2022-08-10T04:58:54.271Z,73.44
2022-08-10T04:59:54.257Z,73.55
2022-08-10T05:00:54.443Z,73.24
2022-08-10T05:02:22.435Z,73.31
2022-08-10T05:02:54.248Z,71.26
2022-08-10T05:04:37.304Z,71.20
2022-08-10T05:04:54.242Z,71.87
2022-08-10T05:05:54.245Z,70.73
2022-08-10T05:06:54.235Z,69.85
2022-08-10T05:07:56.959Z,70.63
2022-08-10T05:08:54.231Z,69.85
2022-08-10T05:10:01.597Z,67.38
2022-08-10T05:10:54.224Z,66.42
2022-08-10T05:11:54.216Z,65.31
2022-08-10T05:12:54.220Z,65.42
2022-08-10T05:13:54.212Z,64.78
2022-08-10T05:14:54.756Z,64.12
2022-08-10T05:15:54.202Z,62.99
2022-08-10T05:16:54.202Z,62.04
2022-08-10T05:18:06.845Z,61.52
2022-08-10T05:18:54.195Z,63.25
2022-08-10T05:20:03.718Z,64.62
2022-08-10T05:20:54.189Z,66.58
2022-08-10T05:22:03.755Z,67.75
2022-08-10T05:22:54.186Z,67.75
2022-08-10T05:23:54.181Z,66.52
2022-08-10T05:24:54.179Z,65.85
2022-08-10T05:25:54.181Z,65.55
2022-08-10T05:27:00.279Z,66.35
2022-08-10T05:27:57.480Z,65.95
2022-08-10T05:28:54.172Z,64.86
2022-08-10T05:30:01.802Z,63.45
2022-08-10T05:30:54.163Z,63.15
2022-08-10T05:31:54.165Z,63.49
2022-08-10T05:32:59.157Z,60.66
2022-08-10T05:33:54.166Z,61.57
2022-08-10T05:34:54.165Z,61.10
2022-08-10T05:35:57.844Z,59.97
2022-08-10T05:36:54.154Z,61.95
2022-08-10T05:38:12.019Z,64.15
2022-08-10T05:38:54.153Z,63.15
2022-08-10T05:39:54.186Z,65.88
2022-08-10T05:40:54.155Z,67.11
2022-08-10T05:41:54.139Z,68.05
2022-08-10T05:42:54.144Z,67.72
2022-08-10T05:43:54.142Z,67.29
2022-08-10T05:44:54.152Z,66.52
2022-08-10T05:46:17.006Z,64.25
2022-08-10T05:46:54.138Z,63.92
2022-08-10T05:48:54.290Z,63.46
2022-08-10T05:49:00.006Z,60.93
2022-08-10T05:49:54.132Z,60.08
2022-08-10T05:50:54.136Z,58.23
2022-08-10T05:51:54.133Z,57.47
2022-08-10T05:52:54.131Z,56.85
2022-08-10T05:54:00.956Z,54.86
2022-08-10T05:54:54.126Z,57.10
2022-08-10T05:55:54.126Z,57.30
2022-08-10T05:56:58.087Z,58.85
2022-08-10T05:57:54.122Z,57.93
2022-08-10T05:58:54.142Z,57.17
2022-08-10T06:00:10.686Z,56.30
2022-08-10T06:00:54.276Z,54.80
2022-08-10T06:02:31.681Z,53.69
2022-08-10T06:02:54.118Z,55.00
2022-08-10T06:03:54.115Z,54.65
2022-08-10T06:04:54.117Z,53.46
2022-08-10T06:05:54.128Z,52.81
2022-08-10T06:06:54.120Z,51.89
2022-08-10T06:07:54.112Z,51.62
2022-08-10T06:08:54.116Z,52.51
2022-08-10T06:09:59.910Z,52.59
2022-08-10T06:12:26.566Z,57.07
2022-08-10T06:12:28.404Z,56.77
2022-08-10T06:12:56.644Z,56.62
2022-08-10T06:14:13.137Z,54.88
2022-08-10T06:14:59.774Z,54.68
2022-08-10T06:15:54.112Z,54.78
2022-08-10T06:16:54.113Z,53.86
2022-08-10T06:18:01.815Z,52.84
2022-08-10T06:18:54.114Z,52.64
2022-08-10T06:19:54.122Z,52.89
2022-08-10T06:20:54.115Z,50.46
2022-08-10T06:22:01.155Z,50.34
2022-08-10T06:22:54.116Z,49.81
2022-08-10T06:23:54.113Z,49.10
2022-08-10T06:25:21.748Z,48.48
2022-08-10T06:26:12.027Z,47.96
2022-08-10T06:26:54.117Z,48.43
2022-08-10T06:27:54.116Z,47.78
2022-08-10T06:29:02.638Z,48.48
2022-08-10T06:29:54.123Z,47.99
2022-08-10T06:30:54.121Z,49.19
2022-08-10T06:31:54.120Z,48.82
2022-08-10T06:32:54.125Z,49.88
2022-08-10T06:33:54.123Z,51.95
2022-08-10T06:34:54.124Z,52.54
2022-08-10T06:35:54.131Z,54.63
2022-08-10T06:36:54.297Z,55.65
2022-08-10T06:37:54.128Z,55.76
2022-08-10T06:38:54.377Z,56.45
2022-08-10T06:39:54.165Z,55.60
2022-08-10T06:40:54.132Z,55.00
2022-08-10T06:42:14.307Z,54.25
2022-08-10T06:42:54.135Z,52.39
2022-08-10T06:43:54.135Z,50.13
2022-08-10T06:44:54.140Z,48.48
2022-08-10T06:46:07.423Z,47.15
2022-08-10T06:46:54.142Z,45.64
2022-08-10T06:47:54.143Z,45.15
2022-08-10T06:48:54.146Z,46.06
2022-08-10T06:49:54.145Z,49.99
2022-08-10T06:50:57.920Z,53.11
2022-08-10T06:51:57.013Z,55.10
2022-08-10T06:52:54.152Z,54.50
2022-08-10T06:53:55.236Z,54.78
2022-08-10T06:54:54.157Z,54.03
2022-08-10T06:55:56.407Z,52.00
2022-08-10T06:57:16.482Z,50.13
2022-08-10T06:57:59.677Z,49.19
2022-08-10T06:58:54.165Z,50.13
2022-08-10T06:59:54.165Z,50.38
2022-08-10T07:00:54.242Z,50.68
2022-08-10T07:01:54.240Z,49.66
2022-08-10T07:02:54.172Z,49.96
2022-08-10T07:03:54.174Z,49.54
2022-08-10T07:04:54.177Z,48.40
2022-08-10T07:05:54.181Z,49.52
2022-08-10T07:06:54.190Z,49.57
2022-08-10T07:07:54.187Z,49.02
2022-08-10T07:08:54.188Z,46.00
2022-08-10T07:09:54.187Z,44.49
2022-08-10T07:10:54.190Z,43.51
2022-08-10T07:11:54.188Z,43.48
2022-08-10T07:12:54.199Z,42.93
2022-08-10T07:14:15.696Z,43.90
2022-08-10T07:14:54.199Z,43.70
2022-08-10T07:15:59.745Z,44.18
2022-08-10T07:16:54.207Z,43.17
2022-08-10T07:17:54.207Z,42.04
2022-08-10T07:18:54.210Z,42.14
2022-08-10T07:19:54.212Z,41.24
2022-08-10T07:20:54.216Z,41.53
2022-08-10T07:21:57.899Z,40.01
2022-08-10T07:23:08.239Z,39.80
2022-08-10T07:23:59.208Z,39.98
2022-08-10T07:24:54.225Z,38.56
2022-08-10T07:25:54.230Z,37.37
2022-08-10T07:26:54.232Z,37.93
2022-08-10T07:27:58.675Z,40.55
2022-08-10T07:28:54.239Z,40.76
2022-08-10T07:29:54.903Z,41.96
2022-08-10T07:30:54.244Z,41.33
2022-08-10T07:31:57.201Z,40.21
2022-08-10T07:32:54.252Z,38.98
2022-08-10T07:33:54.254Z,39.43
2022-08-10T07:34:54.260Z,37.09
2022-08-10T07:35:54.260Z,40.31
2022-08-10T07:36:54.265Z,45.09
2022-08-10T07:37:54.268Z,46.06
2022-08-10T07:38:54.273Z,43.92
2022-08-10T07:40:02.645Z,42.72
2022-08-10T07:40:54.279Z,43.55
2022-08-10T07:41:54.286Z,45.03
2022-08-10T07:42:54.289Z,43.51
2022-08-10T07:43:54.291Z,41.47
2022-08-10T07:44:54.296Z,40.72
2022-08-10T07:45:54.305Z,39.80
2022-08-10T07:46:54.302Z,37.99
2022-08-10T07:47:54.979Z,37.74
2022-08-10T07:48:54.316Z,37.04
2022-08-10T07:49:54.316Z,36.06
2022-08-10T07:50:54.320Z,35.27
2022-08-10T07:51:55.143Z,36.76
2022-08-10T07:52:54.328Z,36.60
2022-08-10T07:53:54.344Z,37.19
2022-08-10T07:54:54.334Z,37.27
2022-08-10T07:56:04.730Z,35.96
2022-08-10T07:56:54.341Z,34.47
2022-08-10T07:57:54.349Z,35.75
2022-08-10T07:58:54.353Z,37.74
2022-08-10T07:59:54.370Z,37.72
2022-08-10T08:00:54.363Z,36.80
2022-08-10T08:01:54.448Z,37.26
2022-08-10T08:02:54.370Z,40.45
2022-08-10T08:04:05.417Z,41.47
2022-08-10T08:04:54.381Z,42.68
2022-08-10T08:06:02.701Z,43.35
2022-08-10T08:06:54.388Z,44.67
2022-08-10T08:07:54.393Z,47.03
2022-08-10T08:08:54.398Z,47.43
2022-08-10T08:09:57.626Z,46.67
2022-08-10T08:10:54.411Z,43.80
2022-08-10T08:11:54.412Z,44.14
2022-08-10T08:12:54.416Z,41.14
2022-08-10T08:13:54.424Z,39.81
2022-08-10T08:14:54.428Z,39.97
2022-08-10T08:16:18.481Z,42.76
2022-08-10T08:16:54.435Z,45.12
2022-08-10T08:17:59.764Z,47.08
2022-08-10T08:19:23.956Z,48.41
2022-08-10T08:19:55.606Z,49.21
2022-08-10T08:20:54.466Z,48.13
2022-08-10T08:24:04.979Z,41.93
2022-08-10T08:24:05.581Z,41.77
2022-08-10T08:24:06.969Z,44.76
2022-08-10T08:24:54.468Z,39.93
2022-08-10T08:25:54.471Z,40.33
2022-08-10T08:26:54.475Z,40.53
2022-08-10T08:27:54.478Z,40.63
2022-08-10T08:28:54.479Z,42.17
2022-08-10T08:29:54.482Z,42.98
2022-08-10T08:30:54.485Z,43.28
2022-08-10T08:32:01.920Z,42.88
2022-08-10T08:32:54.489Z,42.31
2022-08-10T08:33:54.492Z,42.19
2022-08-10T08:34:54.491Z,42.15
2022-08-10T08:35:54.494Z,43.56
2022-08-10T08:36:59.213Z,44.37
2022-08-10T08:38:29.506Z,47.02
2022-08-10T08:38:54.505Z,48.36
2022-08-10T08:39:54.501Z,47.96
2022-08-10T08:40:54.501Z,47.47
2022-08-10T08:41:54.508Z,47.56
2022-08-10T08:42:54.509Z,47.09
2022-08-10T08:43:54.513Z,48.58
2022-08-10T08:44:54.507Z,48.68
2022-08-10T08:46:01.542Z,49.68
2022-08-10T08:46:59.287Z,49.98
2022-08-10T08:48:05.514Z,49.68
2022-08-10T08:48:54.512Z,48.56
2022-08-10T08:50:08.982Z,49.13
2022-08-10T08:50:57.559Z,49.75
2022-08-10T08:52:09.419Z,49.08
2022-08-10T08:52:54.518Z,50.55
2022-08-10T08:54:02.934Z,50.15
2022-08-10T08:54:54.522Z,49.73
2022-08-10T08:56:05.421Z,49.23
2022-08-10T08:56:54.521Z,49.30
2022-08-10T08:57:54.521Z,47.69
2022-08-10T08:58:54.524Z,47.99
2022-08-10T08:59:54.523Z,46.39
2022-08-10T09:00:54.523Z,45.60
2022-08-10T09:01:54.604Z,45.22
2022-08-10T09:02:55.113Z,46.22
2022-08-10T09:03:54.525Z,44.28
2022-08-10T09:04:54.523Z,43.44
2022-08-10T09:06:00.199Z,41.74
2022-08-10T09:06:54.525Z,40.84
2022-08-10T09:08:02.320Z,40.84
2022-08-10T09:08:54.525Z,41.74
2022-08-10T09:09:54.529Z,41.55
2022-08-10T09:10:54.527Z,42.77
2022-08-10T09:11:54.537Z,43.57
2022-08-10T09:12:54.554Z,44.08
2022-08-10T09:13:54.526Z,44.48
2022-08-10T09:14:54.523Z,45.18
2022-08-10T09:15:57.478Z,45.28
2022-08-10T09:16:54.528Z,46.37
2022-08-10T09:17:54.528Z,45.48
2022-08-10T09:18:54.530Z,43.98
2022-08-10T09:19:54.530Z,43.79
2022-08-10T09:20:54.529Z,44.08
2022-08-10T09:22:13.443Z,44.08
2022-08-10T09:22:57.413Z,42.29
2022-08-10T09:24:05.380Z,43.38
2022-08-10T09:24:54.528Z,43.79
2022-08-10T09:25:54.531Z,42.09
2022-08-10T09:26:54.536Z,41.79
2022-08-10T09:27:54.534Z,41.79
2022-08-10T09:29:11.483Z,41.69
2022-08-10T09:29:54.535Z,41.60
2022-08-10T09:31:21.010Z,38.11
2022-08-10T09:33:05.382Z,39.01
2022-08-10T09:36:16.604Z,38.81
2022-08-10T09:36:24.600Z,38.91
2022-08-10T09:36:25.758Z,37.92
2022-08-10T09:36:29.788Z,39.21
2022-08-10T09:36:54.539Z,39.11
2022-08-10T09:38:02.327Z,40.08
2022-08-10T09:38:54.543Z,39.01
2022-08-10T09:40:56.325Z,38.21
2022-08-10T09:41:01.159Z,37.90
2022-08-10T09:41:54.540Z,35.61
2022-08-10T09:43:21.603Z,37.51
2022-08-10T09:43:54.539Z,35.34
2022-08-10T09:44:57.401Z,37.13
2022-08-10T09:45:54.539Z,36.83
2022-08-10T09:46:54.541Z,35.22
2022-08-10T09:48:02.111Z,33.44
2022-08-10T09:48:54.543Z,33.63
2022-08-10T09:49:56.396Z,33.32
2022-08-10T09:51:54.545Z,37.70
2022-08-10T09:52:58.935Z,37.20
2022-08-10T09:53:54.544Z,37.20
2022-08-10T09:54:54.542Z,35.71
2022-08-10T09:56:17.410Z,36.10
2022-08-10T09:57:03.079Z,37.10
2022-08-10T09:57:55.003Z,36.70
2022-08-10T09:59:26.574Z,36.90
2022-08-10T10:00:01.522Z,37.00
2022-08-10T10:00:54.546Z,37.00
2022-08-10T10:02:02.651Z,36.58
2022-08-10T10:02:54.598Z,37.20
2022-08-10T10:03:54.566Z,37.60
2022-08-10T10:04:54.546Z,34.31
2022-08-10T10:05:54.547Z,35.41
2022-08-10T10:06:54.547Z,33.92
2022-08-10T10:07:54.550Z,35.31
2022-08-10T10:08:58.461Z,35.29
2022-08-10T10:09:54.547Z,36.29
2022-08-10T10:10:54.548Z,37.08
2022-08-10T10:11:54.547Z,37.77
2022-08-10T10:12:54.552Z,37.18
2022-08-10T10:14:03.737Z,37.99
2022-08-10T10:14:54.549Z,37.90
2022-08-10T10:15:54.549Z,37.70
2022-08-10T10:16:54.553Z,38.67
2022-08-10T10:17:54.551Z,38.07
2022-08-10T10:18:54.565Z,37.56
2022-08-10T10:19:54.547Z,34.68
2022-08-10T10:20:54.552Z,34.99
2022-08-10T10:21:56.609Z,33.88
2022-08-10T10:22:54.547Z,35.38
2022-08-10T10:24:21.640Z,33.98
2022-08-10T10:24:54.563Z,34.48
2022-08-10T10:25:57.768Z,35.08
2022-08-10T10:26:54.557Z,35.08
2022-08-10T10:27:54.553Z,34.86
2022-08-10T10:29:56.675Z,34.88
2022-08-10T10:30:54.555Z,31.80
2022-08-10T10:31:54.562Z,33.78
2022-08-10T10:32:57.799Z,32.87
2022-08-10T10:33:54.561Z,33.59
2022-08-10T10:34:54.558Z,34.58
2022-08-10T10:35:54.557Z,34.18
2022-08-10T10:36:54.559Z,34.68
2022-08-10T10:38:01.103Z,33.87
2022-08-10T10:38:54.564Z,33.59
2022-08-10T10:39:54.631Z,34.08
2022-08-10T10:40:54.580Z,34.27
2022-08-10T10:42:03.175Z,34.56
2022-08-10T10:42:54.561Z,34.66
2022-08-10T10:43:54.575Z,33.85
2022-08-10T10:44:54.562Z,35.04
2022-08-10T10:45:54.565Z,34.25
2022-08-10T10:46:54.563Z,34.05
2022-08-10T10:47:54.566Z,34.84
2022-08-10T10:48:54.563Z,34.25
2022-08-10T10:49:54.564Z,35.54
2022-08-10T10:50:54.573Z,34.84
2022-08-10T10:51:54.578Z,35.74
2022-08-10T10:52:54.570Z,34.55
2022-08-10T10:53:54.575Z,34.05
2022-08-10T10:54:54.581Z,35.54
2022-08-10T10:56:15.105Z,35.44
2022-08-10T10:56:54.572Z,35.03
2022-08-10T10:58:00.466Z,34.05
2022-08-10T10:58:54.589Z,33.85
2022-08-10T10:59:57.619Z,32.96
2022-08-10T11:00:54.589Z,33.06
2022-08-10T11:01:54.582Z,34.03
2022-08-10T11:02:54.608Z,32.17
2022-08-10T11:03:54.598Z,32.75
2022-08-10T11:04:57.347Z,32.24
2022-08-10T11:05:54.587Z,32.05
2022-08-10T11:06:54.594Z,32.05
2022-08-10T11:07:54.943Z,32.24
2022-08-10T11:08:54.597Z,34.52
2022-08-10T11:10:09.664Z,32.03
2022-08-10T11:10:54.577Z,32.33
2022-08-10T11:12:02.160Z,32.93
2022-08-10T11:12:54.579Z,33.22
2022-08-10T11:14:28.537Z,34.01
2022-08-10T11:14:54.582Z,34.33
2022-08-10T11:15:54.583Z,35.21
2022-08-10T11:16:57.162Z,35.50
2022-08-10T11:17:54.601Z,35.90
2022-08-10T11:18:54.618Z,34.91
2022-08-10T11:20:02.924Z,35.80
2022-08-10T11:20:54.585Z,35.90
2022-08-10T11:21:54.601Z,34.61
2022-08-10T11:22:54.591Z,34.59
2022-08-10T11:24:49.018Z,34.99
2022-08-10T11:24:54.590Z,34.40
2022-08-10T11:25:54.591Z,35.49
2022-08-10T11:26:54.613Z,33.80
2022-08-10T11:27:54.616Z,33.31
2022-08-10T11:28:54.613Z,33.61
2022-08-10T11:29:54.596Z,33.90
2022-08-10T11:30:54.595Z,33.80
2022-08-10T11:31:54.609Z,34.40
2022-08-10T11:32:54.631Z,35.69
2022-08-10T11:34:46.269Z,34.59
2022-08-10T11:35:10.524Z,34.00
2022-08-10T11:35:54.609Z,32.89
2022-08-10T11:36:54.602Z,31.82
2022-08-10T11:38:31.669Z,32.02
2022-08-10T11:39:13.495Z,30.63
2022-08-10T11:39:54.666Z,31.72
2022-08-10T11:40:54.624Z,31.60
2022-08-10T11:42:09.302Z,32.70
2022-08-10T11:42:54.608Z,33.59
2022-08-10T11:43:54.611Z,32.70
2022-08-10T11:44:54.614Z,32.88
2022-08-10T11:45:55.556Z,30.70
2022-08-10T11:46:54.637Z,32.00
2022-08-10T11:47:54.626Z,32.50
2022-08-10T11:48:57.038Z,32.10
2022-08-10T11:49:54.640Z,32.60
2022-08-10T11:50:54.630Z,31.99
2022-08-10T11:51:54.621Z,33.39
2022-08-10T11:52:54.636Z,34.27
2022-08-10T11:53:54.619Z,32.09
2022-08-10T11:54:54.629Z,32.86
2022-08-10T11:55:54.622Z,31.97
2022-08-10T11:56:58.457Z,32.18
2022-08-10T11:57:55.671Z,31.99
2022-08-10T11:58:54.645Z,32.09
2022-08-10T11:59:58.146Z,33.28
2022-08-10T12:00:54.621Z,33.69
2022-08-10T12:01:54.657Z,33.28
2022-08-10T12:02:54.659Z,32.48
2022-08-10T12:03:54.632Z,34.05
2022-08-10T12:04:54.652Z,31.48
2022-08-10T12:05:55.408Z,33.36
2022-08-10T12:06:56.238Z,34.13
2022-08-10T12:10:06.240Z,33.44
2022-08-10T12:10:09.094Z,32.45
2022-08-10T12:10:10.475Z,32.73
2022-08-10T12:10:54.641Z,33.72
2022-08-10T12:11:54.661Z,32.95
2022-08-10T12:12:54.662Z,31.66
2022-08-10T12:14:19.753Z,33.85
2022-08-10T12:14:54.650Z,33.06
2022-08-10T12:15:54.663Z,34.15
2022-08-10T12:16:54.669Z,33.06
2022-08-10T12:17:54.670Z,35.14
2022-08-10T12:18:54.667Z,34.34
2022-08-10T12:19:59.835Z,33.16
2022-08-10T12:20:54.655Z,34.64
2022-08-10T12:21:54.680Z,35.24
2022-08-10T12:22:54.672Z,34.83
2022-08-10T12:24:02.440Z,33.64
2022-08-10T12:24:54.659Z,33.04
2022-08-10T12:25:56.348Z,32.93
2022-08-10T12:26:54.662Z,32.64
2022-08-10T12:27:54.684Z,32.15
2022-08-10T12:28:54.667Z,31.56
2022-08-10T12:29:54.686Z,32.15
2022-08-10T12:30:54.669Z,33.06
2022-08-10T12:31:54.684Z,33.54
2022-08-10T12:32:54.669Z,32.25
2022-08-10T12:34:01.191Z,32.46
2022-08-10T12:34:54.679Z,31.39
2022-08-10T12:36:16.863Z,31.99
2022-08-10T12:36:54.676Z,32.27
2022-08-10T12:37:54.675Z,32.28
2022-08-10T12:38:54.706Z,32.07
2022-08-10T12:40:06.930Z,32.76
2022-08-10T12:40:54.689Z,31.99
2022-08-10T12:41:54.703Z,34.55
2022-08-10T12:43:01.600Z,32.25
2022-08-10T12:44:06.461Z,31.36
2022-08-10T12:44:54.708Z,31.97
2022-08-10T12:45:54.728Z,31.97
2022-08-10T12:46:54.691Z,31.18
2022-08-10T12:47:54.710Z,30.09
2022-08-10T12:48:54.710Z,31.38
2022-08-10T12:50:29.390Z,31.18
2022-08-10T12:50:54.713Z,30.98
2022-08-10T12:51:54.709Z,32.17
2022-08-10T12:52:54.699Z,32.56
2022-08-10T12:53:54.709Z,30.98
2022-08-10T12:54:54.702Z,32.06
2022-08-10T12:55:54.702Z,32.85